createdAt,value
2022-12-18T00:03:34.919Z,39.83
2022-12-18T00:07:36.613Z,44.30
2022-12-18T00:11:38.138Z,48.17
2022-12-18T00:15:40.654Z,43.22
2022-12-18T00:19:42.281Z,43.05
2022-12-18T00:23:45.281Z,39.78
2022-12-18T00:27:46.783Z,40.63
2022-12-18T00:31:48.827Z,37.63
2022-12-18T00:35:50.355Z,39.75
2022-12-18T00:39:51.843Z,34.42
2022-12-18T00:43:54.962Z,36.38
2022-12-18T00:47:57.018Z,39.80
2022-12-18T00:51:58.556Z,31.65
2022-12-18T00:56:00.157Z,33.08
2022-12-18T01:00:02.106Z,35.75
2022-12-18T01:04:04.424Z,36.90
2022-12-18T01:08:05.990Z,40.15
2022-12-18T01:12:07.813Z,30.48
2022-12-18T01:16:09.918Z,28.23
2022-12-18T01:20:13.525Z,27.20
2022-12-18T01:24:15.011Z,31.42
2022-12-18T01:28:16.960Z,28.20
2022-12-18T01:32:18.559Z,21.92
2022-12-18T01:36:23.935Z,22.40
2022-12-18T01:40:25.478Z,23.95
2022-12-18T01:45:04.861Z,28.52
2022-12-18T01:49:06.314Z,24.45
2022-12-18T01:53:15.843Z,27.73
2022-12-18T01:57:17.623Z,32.08
2022-12-18T02:01:19.719Z,23.17
2022-12-18T02:05:36.101Z,25.02
2022-12-18T02:09:47.954Z,21.90
2022-12-18T02:14:17.772Z,22.08
2022-12-18T02:18:24.796Z,17.35
2022-12-18T02:22:55.200Z,19.05
2022-12-18T02:27:01.704Z,22.45
2022-12-18T02:31:08.992Z,20.48
2022-12-18T02:35:17.689Z,22.92
2022-12-18T02:39:22.131Z,21.02
2022-12-18T02:43:34.092Z,22.88
2022-12-18T02:47:39.982Z,18.98
2022-12-18T02:51:57.091Z,21.67
2022-12-18T02:56:20.399Z,15.05
2022-12-18T03:00:38.623Z,14.00
2022-12-18T03:05:18.971Z,25.25
2022-12-18T03:09:36.387Z,21.35
2022-12-18T03:13:51.893Z,19.15
2022-12-18T03:18:00.293Z,22.20
2022-12-18T03:22:07.906Z,16.75
2022-12-18T03:26:23.003Z,16.75
2022-12-18T03:30:32.136Z,15.02
2022-12-18T03:34:37.373Z,17.83
2022-12-18T03:38:42.154Z,18.40
2022-12-18T03:43:04.353Z,15.77
2022-12-18T03:47:28.492Z,19.35
2022-12-18T03:51:51.862Z,12.73
2022-12-18T03:55:54.093Z,16.45
2022-12-18T04:00:01.634Z,18.05
2022-12-18T04:04:17.557Z,16.05
2022-12-18T04:08:21.586Z,10.55
2022-12-18T04:12:31.489Z,16.05
2022-12-18T04:16:33.074Z,14.50
2022-12-18T04:20:38.020Z,12.68
2022-12-18T04:24:39.713Z,12.55
2022-12-18T04:28:51.773Z,9.60
2022-12-18T04:32:53.358Z,13.48
2022-12-18T04:36:56.577Z,15.52
2022-12-18T04:40:58.820Z,14.18
2022-12-18T04:45:02.629Z,13.80
2022-12-18T04:49:04.105Z,11.82
2022-12-18T04:53:05.795Z,14.55
2022-12-18T04:57:07.374Z,14.77
2022-12-18T05:01:09.817Z,15.45
2022-12-18T05:05:11.505Z,14.45
2022-12-18T05:09:13.148Z,14.10
2022-12-18T05:13:14.649Z,14.90
2022-12-18T05:17:16.295Z,10.38
2022-12-18T05:21:17.955Z,12.98
2022-12-18T05:25:20.401Z,14.10
2022-12-18T05:29:22.488Z,10.95
2022-12-18T05:33:26.997Z,13.00
2022-12-18T05:37:28.552Z,10.77
2022-12-18T05:41:30.204Z,14.52
2022-12-18T05:45:31.880Z,10.32
2022-12-18T05:49:33.365Z,13.05
2022-12-18T05:53:36.098Z,12.57
2022-12-18T05:57:37.738Z,10.20
2022-12-18T06:01:39.334Z,10.10
2022-12-18T06:05:44.302Z,11.48
2022-12-18T06:09:45.809Z,15.52
2022-12-18T06:13:53.489Z,11.55
2022-12-18T06:17:57.837Z,11.60
2022-12-18T06:21:59.832Z,11.25
2022-12-18T06:26:10.351Z,11.68
2022-12-18T06:30:13.101Z,9.77
2022-12-18T06:34:15.555Z,10.18
2022-12-18T06:38:17.196Z,14.00
2022-12-18T06:42:18.757Z,12.98
2022-12-18T06:46:20.339Z,15.70
2022-12-18T06:50:21.826Z,11.05
2022-12-18T06:54:23.305Z,12.50
2022-12-18T06:58:25.451Z,11.60
2022-12-18T07:02:27.285Z,17.05
2022-12-18T07:06:28.945Z,15.77
2022-12-18T07:10:30.499Z,13.00
2022-12-18T07:14:32.080Z,15.23
2022-12-18T07:18:33.675Z,14.60
2022-12-18T07:22:35.226Z,16.00
2022-12-18T07:26:36.719Z,12.95
2022-12-18T07:30:39.277Z,17.73
2022-12-18T07:34:40.996Z,13.30
2022-12-18T07:38:43.015Z,20.95
2022-12-18T07:42:44.527Z,16.42
2022-12-18T07:46:46.071Z,20.95
2022-12-18T07:50:47.813Z,16.75
2022-12-18T07:54:50.863Z,13.35
2022-12-18T07:58:52.412Z,17.45
2022-12-18T08:02:54.396Z,20.65
2022-12-18T08:06:56.073Z,16.50
2022-12-18T08:10:58.292Z,15.00
2022-12-18T08:14:59.768Z,20.08
2022-12-18T08:19:01.309Z,20.25
2022-12-18T08:23:02.985Z,20.58
2022-12-18T08:27:28.399Z,21.23
2022-12-18T08:31:27.303Z,22.67
2022-12-18T08:35:34.247Z,22.67
2022-12-18T08:39:37.901Z,20.40
2022-12-18T08:43:58.110Z,20.20
2022-12-18T08:47:59.761Z,24.08
2022-12-18T08:52:01.553Z,22.85
2022-12-18T08:56:04.274Z,22.40
2022-12-18T09:00:06.294Z,19.98
2022-12-18T09:04:09.032Z,22.67
2022-12-18T09:08:10.644Z,21.30
2022-12-18T09:12:12.213Z,25.17
2022-12-18T09:16:13.952Z,24.80
2022-12-18T09:20:15.460Z,22.38
2022-12-18T09:24:18.685Z,27.98
2022-12-18T09:28:20.294Z,21.48
2022-12-18T09:32:22.592Z,27.20
2022-12-18T09:36:24.375Z,26.50
2022-12-18T09:40:29.068Z,25.02
2022-12-18T09:44:43.039Z,24.27
2022-12-18T09:48:51.546Z,25.73
2022-12-18T09:52:57.445Z,22.75
2022-12-18T10:01:00.645Z,21.98
2022-12-18T10:05:15.105Z,29.25
2022-12-18T10:09:32.613Z,23.90
2022-12-18T10:13:40.030Z,26.63
2022-12-18T10:18:02.845Z,26.55
2022-12-18T10:22:27.402Z,27.55
2022-12-18T10:26:32.746Z,24.90
2022-12-18T10:30:34.462Z,24.48
2022-12-18T10:34:36.126Z,22.98
2022-12-18T10:38:38.700Z,25.02
2022-12-18T10:42:42.756Z,24.52
2022-12-18T10:46:48.950Z,22.70
2022-12-18T10:51:10.809Z,24.17
2022-12-18T10:55:17.308Z,26.85
2022-12-18T10:59:19.383Z,23.95
2022-12-18T11:03:32.443Z,25.20
2022-12-18T11:07:50.257Z,24.92
2022-12-18T11:12:04.723Z,24.85
2022-12-18T11:16:06.784Z,25.25
2022-12-18T11:20:24.706Z,24.77
2022-12-18T11:24:37.327Z,23.85
2022-12-18T11:28:43.232Z,24.65
2022-12-18T11:33:04.951Z,25.95
2022-12-18T11:37:06.539Z,26.33
2022-12-18T11:41:17.216Z,25.15
2022-12-18T11:45:26.400Z,22.27
2022-12-18T11:49:34.112Z,26.23
2022-12-18T11:53:38.961Z,28.23
2022-12-18T11:57:46.368Z,25.52
2022-12-18T12:02:00.747Z,23.92
2022-12-18T12:06:27.098Z,27.27
2022-12-18T12:10:35.783Z,24.70
2022-12-18T12:14:52.059Z,24.70
2022-12-18T12:19:15.624Z,21.35
2022-12-18T12:23:40.828Z,24.33
2022-12-18T12:27:57.077Z,25.33
2022-12-18T12:32:08.755Z,22.63
2022-12-18T12:36:30.466Z,22.42
2022-12-18T12:41:00.546Z,22.88
2022-12-18T12:45:01.646Z,23.95
2022-12-18T12:49:05.547Z,24.75
2022-12-18T12:53:10.344Z,21.45
2022-12-18T12:57:22.678Z,24.27
2022-12-18T13:01:38.274Z,24.38
2022-12-18T13:05:52.268Z,26.10
2022-12-18T13:10:23.493Z,27.00
2022-12-18T13:14:38.820Z,26.33
2022-12-18T13:18:50.970Z,26.38
2022-12-18T13:22:52.985Z,23.38
2022-12-18T13:26:55.234Z,28.00
2022-12-18T13:30:58.599Z,27.25
2022-12-18T13:35:18.325Z,28.40
2022-12-18T13:39:28.942Z,25.08
2022-12-18T13:43:44.332Z,22.73
2022-12-18T13:47:46.354Z,25.58
2022-12-18T13:51:50.283Z,20.95
2022-12-18T13:55:52.775Z,20.80
2022-12-18T13:59:55.486Z,18.90
2022-12-18T14:04:20.061Z,19.05
2022-12-18T14:08:22.145Z,20.02
2022-12-18T14:12:46.272Z,18.88
2022-12-18T14:16:49.923Z,15.85
2022-12-18T14:20:55.849Z,25.00
2022-12-18T14:25:17.801Z,23.60
2022-12-18T14:29:27.732Z,21.25
2022-12-18T14:33:29.271Z,20.85
2022-12-18T14:37:30.900Z,18.27
2022-12-18T14:41:33.967Z,23.23
2022-12-18T14:45:47.041Z,26.27
2022-12-18T14:49:49.360Z,24.25
2022-12-18T14:54:08.765Z,17.48
2022-12-18T14:58:16.641Z,21.35
2022-12-18T15:02:24.244Z,23.27
2022-12-18T15:06:35.653Z,16.60
2022-12-18T15:10:48.279Z,21.58
2022-12-18T15:14:50.120Z,29.30
2022-12-18T15:18:54.158Z,22.50
2022-12-18T15:22:55.977Z,17.63
2022-12-18T15:26:58.075Z,24.73
2022-12-18T15:31:25.627Z,24.75
2022-12-18T15:35:27.533Z,18.23
2022-12-18T15:39:29.199Z,23.83
2022-12-18T15:43:34.645Z,19.40
2022-12-18T15:47:36.285Z,17.67
2022-12-18T15:51:39.034Z,11.43
2022-12-18T15:56:01.306Z,20.08
2022-12-18T16:00:03.793Z,14.27
2022-12-18T16:04:06.933Z,24.88
2022-12-18T16:08:08.545Z,18.35
2022-12-18T16:12:22.804Z,23.17
2022-12-18T16:16:24.377Z,22.67
2022-12-18T16:20:27.204Z,16.92
2022-12-18T16:24:31.227Z,21.00
2022-12-18T16:28:32.747Z,22.48
2022-12-18T16:32:34.216Z,12.98
2022-12-18T16:36:35.720Z,18.58
2022-12-18T16:40:58.884Z,22.60
2022-12-18T16:45:00.611Z,20.60
2022-12-18T16:49:02.190Z,26.75
2022-12-18T16:53:03.744Z,16.90
2022-12-18T16:57:05.710Z,18.48
2022-12-18T17:01:11.814Z,29.15
2022-12-18T17:05:13.501Z,29.30
2022-12-18T17:09:22.237Z,23.05
2022-12-18T17:13:27.413Z,21.92
2022-12-18T17:17:28.934Z,30.23
2022-12-18T17:21:30.846Z,21.85
2022-12-18T17:25:32.548Z,13.10
2022-12-18T17:29:34.551Z,20.00
2022-12-18T17:33:36.443Z,20.63
2022-12-18T17:37:41.603Z,24.73
2022-12-18T17:41:43.337Z,22.55
2022-12-18T17:45:45.252Z,16.35
2022-12-18T17:49:46.823Z,15.43
2022-12-18T17:53:48.802Z,25.33
2022-12-18T17:57:50.443Z,21.25
2022-12-18T18:01:52.418Z,21.90
2022-12-18T18:06:01.590Z,18.17
2022-12-18T18:10:04.348Z,19.80
2022-12-18T18:14:11.367Z,22.20
2022-12-18T18:18:13.698Z,24.58
2022-12-18T18:22:16.839Z,19.90
2022-12-18T18:26:19.935Z,22.30
2022-12-18T18:30:22.386Z,16.05
2022-12-18T18:34:28.106Z,22.05
2022-12-18T18:38:29.781Z,19.67
2022-12-18T18:42:31.451Z,18.08
2022-12-18T18:46:33.425Z,21.38
2022-12-18T18:50:35.209Z,19.05
2022-12-18T18:54:36.832Z,21.55
2022-12-18T18:58:38.583Z,19.83
2022-12-18T19:02:40.385Z,18.45
2022-12-18T19:06:42.642Z,25.00
2022-12-18T19:10:44.592Z,23.60
